Time;durP1;ratioP1;P1;durP2;ratioP2;P2;SDS_P1;SDS_P2;PMS_P1;PMS_P2;Temp;Humidity;BMP_temperature;BMP_pressure;BME280_temperature;BME280_humidity;BME280_pressure;Samples;Min_cycle;Max_cycle;Signal;HPM_P1;HPM_P2
2022/08/10 00:00:20;;;;;;;4.63;2.88;;;14.20;99.90;;;;;;5093599;28;20477;-78
2022/08/10 00:02:51;;;;;;;7.63;4.82;;;14.10;99.90;;;;;;5075625;28;20052;-78
2022/08/10 00:05:17;;;;;;;6.38;3.60;;;14.10;99.90;;;;;;5093791;28;20054;-78
2022/08/10 00:07:42;;;;;;;7.32;4.20;;;14.00;99.90;;;;;;5093693;28;20043;-77
2022/08/10 00:10:09;;;;;;;7.32;4.15;;;13.90;99.90;;;;;;5093416;28;20398;-79
2022/08/10 00:12:35;;;;;;;6.13;3.97;;;13.90;99.90;;;;;;5093144;28;20410;-78
2022/08/10 00:15:01;;;;;;;4.95;3.38;;;13.90;99.90;;;;;;5093522;28;20032;-76
2022/08/10 00:17:26;;;;;;;3.50;2.25;;;13.90;99.90;;;;;;5093254;28;20036;-77
2022/08/10 00:19:52;;;;;;;2.38;1.67;;;13.90;99.90;;;;;;5075279;28;20107;-78
2022/08/10 00:22:18;;;;;;;3.85;1.52;;;13.80;99.90;;;;;;5093857;28;20550;-77
2022/08/10 00:24:43;;;;;;;2.90;2.28;;;13.80;99.90;;;;;;5093471;28;20040;-77
2022/08/10 00:27:09;;;;;;;3.05;1.83;;;13.70;99.90;;;;;;5093061;28;20478;-78
2022/08/10 00:29:35;;;;;;;2.75;2.30;;;13.70;99.90;;;;;;5092852;28;20135;-78
2022/08/10 00:32:01;;;;;;;2.60;1.80;;;13.70;99.90;;;;;;5093285;28;20051;-78
2022/08/10 00:34:28;;;;;;;4.40;2.42;;;13.70;99.90;;;;;;5092977;28;20051;-78
2022/08/10 00:36:54;;;;;;;3.60;2.45;;;13.70;99.90;;;;;;5075007;28;20048;-77
2022/08/10 00:39:20;;;;;;;3.95;2.20;;;13.60;99.90;;;;;;5073896;28;20060;-77
2022/08/10 00:41:46;;;;;;;2.83;1.67;;;13.60;99.90;;;;;;5092957;28;20044;-77
2022/08/10 00:44:12;;;;;;;4.38;2.53;;;13.50;99.90;;;;;;5092346;28;20054;-78
2022/08/10 00:46:37;;;;;;;4.20;2.88;;;13.50;99.90;;;;;;5092720;28;20081;-78
2022/08/10 00:49:03;;;;;;;5.55;4.50;;;13.50;99.90;;;;;;5092584;28;20047;-77
2022/08/10 00:51:29;;;;;;;5.82;4.40;;;13.40;99.90;;;;;;5092640;28;20059;-78
2022/08/10 00:53:54;;;;;;;8.32;4.40;;;13.30;99.90;;;;;;5092159;28;20058;-78
2022/08/10 00:56:20;;;;;;;4.22;3.20;;;13.30;99.90;;;;;;5092313;28;20048;-78
2022/08/10 00:58:46;;;;;;;5.50;3.33;;;13.30;99.90;;;;;;5091885;28;20505;-78
2022/08/10 01:01:12;;;;;;;5.30;3.58;;;13.30;99.90;;;;;;5092535;28;20076;-78
2022/08/10 01:03:37;;;;;;;4.18;2.30;;;13.30;99.90;;;;;;5092228;28;20080;-78
2022/08/10 01:06:27;;;;;;;3.30;2.42;;;13.30;99.90;;;;;;5092370;28;20058;-77
2022/08/10 01:09:08;;;;;;;6.25;4.25;;;13.20;99.90;;;;;;5091810;28;20032;-77
2022/08/10 01:11:54;;;;;;;5.18;3.58;;;13.20;99.90;;;;;;5092002;28;20127;-78
2022/08/10 01:14:44;;;;;;;5.25;4.20;;;13.40;99.90;;;;;;5073682;28;20060;-78
2022/08/10 01:17:33;;;;;;;7.47;4.38;;;13.10;99.90;;;;;;5091854;28;20055;-78
2022/08/10 01:20:18;;;;;;;4.82;3.70;;;13.10;99.90;;;;;;5091890;28;20051;-78
2022/08/10 01:23:08;;;;;;;6.57;4.38;;;13.20;99.90;;;;;;5092081;28;20093;-77
2022/08/10 01:25:57;;;;;;;11.73;5.47;;;13.20;99.90;;;;;;5091377;28;20556;-78
2022/08/10 01:28:33;;;;;;;6.82;4.78;;;13.10;99.90;;;;;;5091596;28;20059;-77
2022/08/10 01:31:01;;;;;;;5.95;4.10;;;13.10;99.90;;;;;;5091703;28;20047;-78
2022/08/10 01:33:35;;;;;;;7.38;4.22;;;13.00;99.90;;;;;;5073689;28;20059;-77
2022/08/10 01:36:08;;;;;;;5.18;3.17;;;13.00;99.90;;;;;;5092220;28;20048;-77
2022/08/10 01:38:39;;;;;;;7.85;3.00;;;13.00;99.90;;;;;;5091974;28;20066;-77
2022/08/10 01:41:28;;;;;;;6.85;3.58;;;13.00;99.90;;;;;;5074027;28;20475;-79
2022/08/10 01:44:07;;;;;;;4.78;3.67;;;13.00;99.90;;;;;;5092157;28;20054;-79
2022/08/10 01:46:35;;;;;;;4.50;3.50;;;13.00;99.90;;;;;;5074923;28;20119;-77
2022/08/10 01:49:05;;;;;;;5.40;3.67;;;13.00;99.90;;;;;;5094146;28;20040;-78
2022/08/10 01:51:34;;;;;;;7.28;5.45;;;13.00;99.90;;;;;;5093925;28;20393;-77
2022/08/10 01:54:01;;;;;;;9.80;8.50;;;13.00;99.90;;;;;;5073497;28;20044;-76
2022/08/10 01:56:35;;;;;;;7.88;6.70;;;13.00;99.90;;;;;;5073171;28;20261;-78
2022/08/10 01:59:06;;;;;;;6.32;5.22;;;13.10;99.90;;;;;;5091727;28;20040;-77
2022/08/10 02:01:39;;;;;;;7.03;5.03;;;13.20;99.90;;;;;;5072049;28;20452;-77
2022/08/10 02:04:10;;;;;;;5.35;4.13;;;12.90;99.90;;;;;;5091249;28;20439;-77
2022/08/10 02:06:48;;;;;;;4.95;3.83;;;13.20;99.90;;;;;;5090969;28;20048;-78
2022/08/10 02:09:18;;;;;;;5.32;3.58;;;12.90;99.90;;;;;;5091120;28;20131;-77
2022/08/10 02:11:44;;;;;;;4.15;3.15;;;12.90;99.90;;;;;;5090968;28;20081;-77
2022/08/10 02:14:13;;;;;;;5.20;3.40;;;12.90;99.90;;;;;;5090773;28;20036;-77
2022/08/10 02:16:42;;;;;;;4.15;2.90;;;12.90;99.90;;;;;;5090211;28;20085;-76
2022/08/10 02:19:11;;;;;;;3.35;2.40;;;12.90;99.90;;;;;;5091210;28;20044;-77
2022/08/10 02:21:39;;;;;;;4.80;3.28;;;12.90;99.90;;;;;;5089980;28;20044;-79
2022/08/10 02:24:07;;;;;;;5.50;4.75;;;12.90;99.90;;;;;;5091208;28;20113;-77
2022/08/10 02:26:34;;;;;;;6.95;5.63;;;12.90;99.90;;;;;;5072602;28;20052;-79
2022/08/10 02:29:00;;;;;;;7.38;6.00;;;12.90;99.90;;;;;;5090370;28;20040;-78
2022/08/10 02:31:28;;;;;;;9.82;7.10;;;12.80;99.90;;;;;;5090499;28;20052;-79
2022/08/10 02:33:56;;;;;;;6.97;5.55;;;12.80;99.90;;;;;;5072335;28;20043;-79
2022/08/10 02:36:23;;;;;;;8.82;6.53;;;12.80;99.90;;;;;;5090895;28;20043;-78
2022/08/10 02:38:52;;;;;;;6.95;4.53;;;12.80;99.90;;;;;;5090849;28;20048;-79
2022/08/10 02:41:39;;;;;;;9.23;7.55;;;12.70;99.90;;;;;;5090574;28;20502;-79
2022/08/10 02:44:16;;;;;;;9.35;7.55;;;12.70;99.90;;;;;;5090429;28;20123;-78
2022/08/10 02:46:47;;;;;;;9.85;8.35;;;12.60;99.90;;;;;;5072011;28;20046;-78
2022/08/10 02:49:20;;;;;;;8.98;7.10;;;12.60;99.90;;;;;;5090223;28;20040;-77
2022/08/10 02:51:57;;;;;;;6.80;5.40;;;12.60;99.90;;;;;;5090013;28;20046;-77
2022/08/10 02:54:27;;;;;;;6.57;4.75;;;12.60;99.90;;;;;;5090328;28;20036;-76
2022/08/10 02:57:01;;;;;;;7.60;5.05;;;12.50;99.90;;;;;;5071699;28;20056;-77
2022/08/10 02:59:32;;;;;;;9.30;7.70;;;12.60;99.90;;;;;;5090587;28;20466;-77
2022/08/10 03:02:01;;;;;;;10.90;7.00;;;12.50;99.90;;;;;;5090274;28;20048;-77
2022/08/10 03:04:36;;;;;;;6.28;4.80;;;12.40;99.90;;;;;;5071068;28;20125;-77
2022/08/10 03:07:06;;;;;;;6.18;3.17;;;12.50;99.90;;;;;;5090336;28;20059;-77
2022/08/10 03:09:35;;;;;;;4.82;3.15;;;12.50;99.90;;;;;;5090500;28;20032;-77
2022/08/10 03:12:05;;;;;;;16.45;10.25;;;12.50;99.90;;;;;;5090254;28;20074;-76
2022/08/10 03:14:31;;;;;;;9.48;7.60;;;12.40;99.90;;;;;;5089792;28;20459;-76
2022/08/10 03:17:00;;;;;;;11.18;6.78;;;12.30;99.90;;;;;;5090102;28;20062;-77
2022/08/10 03:19:28;;;;;;;9.45;7.35;;;12.30;99.90;;;;;;5089923;28;20055;-78
2022/08/10 03:21:55;;;;;;;10.70;7.47;;;12.30;99.90;;;;;;5089911;28;20048;-78
2022/08/10 03:24:24;;;;;;;10.75;6.93;;;12.20;99.90;;;;;;5090103;28;20545;-78
2022/08/10 03:26:52;;;;;;;7.78;6.45;;;12.30;99.90;;;;;;5089985;28;20048;-78
2022/08/10 03:29:19;;;;;;;7.25;5.68;;;12.20;99.90;;;;;;5089944;28;20055;-78
2022/08/10 03:31:46;;;;;;;5.15;4.03;;;12.30;99.90;;;;;;5071574;28;20073;-76
2022/08/10 03:34:15;;;;;;;5.57;4.55;;;12.40;99.90;;;;;;5089589;28;20094;-79
2022/08/10 03:36:42;;;;;;;6.43;5.03;;;12.20;99.90;;;;;;5090003;28;20040;-78
2022/08/10 03:39:08;;;;;;;5.40;4.43;;;12.20;99.90;;;;;;5090009;28;20052;-78
2022/08/10 03:41:40;;;;;;;8.38;4.55;;;12.30;99.90;;;;;;5089822;28;20059;-77
2022/08/10 03:44:08;;;;;;;7.30;4.15;;;12.20;99.90;;;;;;5071909;28;20055;-78
2022/08/10 03:46:39;;;;;;;6.68;3.85;;;12.20;99.90;;;;;;5089512;28;20125;-77
2022/08/10 03:49:07;;;;;;;11.32;5.32;;;12.30;99.90;;;;;;5089615;28;20459;-79
2022/08/10 03:51:33;;;;;;;18.05;10.15;;;12.50;99.90;;;;;;5089517;28;20048;-77
2022/08/10 03:54:01;;;;;;;11.65;7.72;;;12.30;99.90;;;;;;5089945;28;20048;-77
2022/08/10 03:56:27;;;;;;;11.27;6.07;;;12.30;99.90;;;;;;5089570;28;20414;-78
2022/08/10 03:58:53;;;;;;;8.98;5.70;;;12.30;99.90;;;;;;5089389;28;20037;-77
2022/08/10 04:01:19;;;;;;;8.32;5.13;;;12.20;99.90;;;;;;5089780;28;20045;-77
2022/08/10 04:03:45;;;;;;;5.53;4.35;;;12.20;99.90;;;;;;5089853;28;20036;-78
2022/08/10 04:06:11;;;;;;;8.55;5.60;;;12.20;99.90;;;;;;5089356;28;20043;-78
2022/08/10 04:08:43;;;;;;;8.40;5.15;;;12.20;99.90;;;;;;5090028;28;20047;-78
2022/08/10 04:11:10;;;;;;;5.68;4.30;;;12.20;99.90;;;;;;5089510;28;20610;-78
2022/08/10 04:13:36;;;;;;;5.53;3.03;;;12.30;99.90;;;;;;5088951;28;20075;-78
2022/08/10 04:16:03;;;;;;;7.25;4.43;;;12.30;99.90;;;;;;5091331;28;20040;-77
2022/08/10 04:18:29;;;;;;;9.07;5.53;;;12.30;99.90;;;;;;5075123;28;20052;-77
2022/08/10 04:21:01;;;;;;;9.90;6.70;;;12.30;99.90;;;;;;5092640;28;20047;-78
2022/08/10 04:23:32;;;;;;;13.48;7.10;;;12.60;99.90;;;;;;5093002;28;20055;-78
2022/08/10 04:25:58;;;;;;;8.35;6.45;;;12.50;99.90;;;;;;5093141;28;20054;-77
2022/08/10 04:28:25;;;;;;;8.82;6.35;;;12.90;99.90;;;;;;5092583;28;20048;-78
2022/08/10 04:30:52;;;;;;;10.07;6.20;;;12.50;99.90;;;;;;5092609;28;20054;-77
2022/08/10 04:33:22;;;;;;;9.57;6.32;;;12.90;99.90;;;;;;5092797;28;20394;-78
2022/08/10 04:35:49;;;;;;;10.80;6.53;;;12.60;99.90;;;;;;5074681;28;20040;-78
2022/08/10 04:38:17;;;;;;;10.50;7.60;;;12.70;99.90;;;;;;5092190;28;20044;-77
2022/08/10 04:40:43;;;;;;;12.27;7.82;;;12.90;99.90;;;;;;5092819;28;20048;-78
2022/08/10 04:43:09;;;;;;;13.27;8.25;;;13.10;99.90;;;;;;5092483;28;20083;-78
2022/08/10 04:45:34;;;;;;;12.63;7.13;;;12.90;99.90;;;;;;5092577;28;20055;-78
2022/08/10 04:48:00;;;;;;;11.48;8.10;;;12.90;99.90;;;;;;5092925;28;20040;-78
2022/08/10 04:50:26;;;;;;;15.77;7.97;;;13.00;99.90;;;;;;5092594;28;20473;-77
2022/08/10 04:52:52;;;;;;;10.73;7.45;;;13.20;99.90;;;;;;5092454;28;20497;-79
2022/08/10 04:55:18;;;;;;;12.15;8.30;;;13.00;99.90;;;;;;5092403;28;20089;-77
2022/08/10 04:57:44;;;;;;;14.68;9.00;;;13.10;99.90;;;;;;5092358;28;20044;-78
2022/08/10 05:00:10;;;;;;;14.52;9.52;;;13.20;99.90;;;;;;5092532;28;20071;-79
2022/08/10 05:02:36;;;;;;;13.57;9.10;;;13.30;99.90;;;;;;5092408;28;20105;-78
2022/08/10 05:05:02;;;;;;;18.67;9.68;;;13.30;99.90;;;;;;5092462;28;20123;-78
2022/08/10 05:07:27;;;;;;;11.38;7.82;;;13.40;99.90;;;;;;5091876;28;20047;-77
2022/08/10 05:09:53;;;;;;;12.18;8.35;;;13.50;99.90;;;;;;5073899;28;20201;-78
2022/08/10 05:12:19;;;;;;;10.98;7.05;;;13.60;99.90;;;;;;5092462;28;20566;-77
2022/08/10 05:14:45;;;;;;;14.20;8.73;;;13.60;99.90;;;;;;5091749;28;20486;-77
2022/08/10 05:17:10;;;;;;;10.77;7.93;;;13.70;99.90;;;;;;5092199;28;20040;-77
2022/08/10 05:19:37;;;;;;;12.38;8.32;;;13.80;99.90;;;;;;5092306;28;20055;-77
2022/08/10 05:22:03;;;;;;;19.17;9.82;;;13.80;99.90;;;;;;5092078;28;20143;-77
2022/08/10 05:24:29;;;;;;;12.02;8.13;;;14.00;99.90;;;;;;5091438;28;20532;-77
2022/08/10 05:26:55;;;;;;;18.02;9.30;;;14.10;99.90;;;;;;5091160;28;20200;-78
2022/08/10 05:29:21;;;;;;;14.18;9.18;;;14.40;99.90;;;;;;5092025;28;20126;-77
2022/08/10 05:31:48;;;;;;;12.40;7.97;;;14.30;99.90;;;;;;5073663;28;20040;-77
2022/08/10 05:34:13;;;;;;;12.65;9.57;;;14.40;99.90;;;;;;5091807;28;20047;-78
2022/08/10 05:36:41;;;;;;;11.20;8.00;;;14.70;99.90;;;;;;5073649;28;20055;-77
2022/08/10 05:39:07;;;;;;;11.65;8.38;;;14.60;99.90;;;;;;5091182;28;20036;-77
2022/08/10 05:41:34;;;;;;;10.20;7.93;;;14.70;99.90;;;;;;5091705;28;20044;-76
2022/08/10 05:43:59;;;;;;;17.30;10.05;;;14.80;99.90;;;;;;5091442;28;20502;-76
2022/08/10 05:46:25;;;;;;;14.82;10.05;;;15.00;99.90;;;;;;5091763;28;20047;-77
2022/08/10 05:48:51;;;;;;;18.48;10.93;;;15.10;99.90;;;;;;5091381;28;20032;-77
2022/08/10 05:51:17;;;;;;;13.90;10.32;;;15.30;99.90;;;;;;5091515;28;20032;-76
2022/08/10 05:53:43;;;;;;;13.85;9.77;;;15.40;99.90;;;;;;5091994;28;20040;-77
2022/08/10 05:56:10;;;;;;;15.85;9.85;;;15.50;99.90;;;;;;5091508;28;20071;-77
2022/08/10 05:58:35;;;;;;;14.63;9.70;;;15.60;99.90;;;;;;5073112;28;20048;-77
2022/08/10 06:01:08;;;;;;;14.85;9.60;;;15.70;99.90;;;;;;5091479;28;20052;-75
2022/08/10 06:03:42;;;;;;;21.27;10.98;;;15.80;99.90;;;;;;5073285;28;20596;-77
2022/08/10 06:06:10;;;;;;;14.20;11.20;;;16.00;99.90;;;;;;5073604;28;20054;-76
2022/08/10 06:08:39;;;;;;;17.52;10.35;;;16.20;99.90;;;;;;5091147;28;20044;-78
2022/08/10 06:11:07;;;;;;;16.50;9.98;;;16.20;99.90;;;;;;5091137;28;20048;-77
2022/08/10 06:16:22;;;;;;;14.85;9.15;;;16.40;99.90;;;;;;5073112;28;20048;-77
2022/08/10 06:18:49;;;;;;;14.38;8.63;;;16.50;99.90;;;;;;5091446;28;20119;-76
2022/08/10 06:21:17;;;;;;;17.20;9.43;;;16.60;99.90;;;;;;5090831;28;20047;-77
2022/08/10 06:23:43;;;;;;;14.93;8.30;;;16.80;99.90;;;;;;5072945;28;20048;-78
2022/08/10 06:26:09;;;;;;;11.90;8.52;;;16.90;99.90;;;;;;5090950;28;20051;-77
2022/08/10 06:28:39;;;;;;;12.25;8.15;;;17.00;99.90;;;;;;5056296;28;20052;-78
2022/08/10 06:31:06;;;;;;;13.85;8.55;;;17.10;99.90;;;;;;5091060;28;20491;-79
2022/08/10 06:33:35;;;;;;;12.63;7.20;;;17.20;99.90;;;;;;5090869;28;20080;-78
2022/08/10 06:36:02;;;;;;;13.05;7.63;;;17.30;99.90;;;;;;5072811;28;20115;-79
2022/08/10 06:38:32;;;;;;;8.77;6.35;;;17.50;99.90;;;;;;5090570;28;20040;-78
2022/08/10 06:41:06;;;;;;;13.55;7.10;;;17.60;99.90;;;;;;5090410;28;20497;-78
2022/08/10 06:43:34;;;;;;;11.15;6.07;;;17.60;99.90;;;;;;5089991;28;20047;-79
2022/08/10 06:46:04;;;;;;;8.27;5.00;;;17.80;99.90;;;;;;5072661;28;20074;-77
2022/08/10 06:48:37;;;;;;;9.23;4.68;;;17.80;99.90;;;;;;5090571;28;20395;-79
2022/08/10 06:51:12;;;;;;;10.27;4.50;;;18.00;99.90;;;;;;5090597;28;20450;-77
2022/08/10 06:53:44;;;;;;;8.23;4.20;;;18.10;99.90;;;;;;5090585;28;20118;-76
2022/08/10 06:56:14;;;;;;;10.57;4.75;;;18.10;99.90;;;;;;5090373;28;20052;-79
2022/08/10 06:59:01;;;;;;;9.23;3.58;;;18.20;99.90;;;;;;5089845;28;20075;-77
2022/08/10 07:01:32;;;;;;;5.78;3.70;;;18.40;99.90;;;;;;5089778;28;20067;-78
2022/08/10 07:04:07;;;;;;;8.30;3.67;;;18.50;99.90;;;;;;5090199;28;20044;-80
2022/08/10 07:06:35;;;;;;;5.50;3.38;;;18.60;99.90;;;;;;5090153;28;20047;-78
2022/08/10 07:09:02;;;;;;;5.70;3.00;;;18.70;99.90;;;;;;5089950;28;20128;-81
2022/08/10 07:11:30;;;;;;;5.85;2.90;;;18.80;99.90;;;;;;5089857;28;20048;-83
2022/08/10 07:13:59;;;;;;;5.80;2.88;;;18.90;99.90;;;;;;5071605;28;20079;-79
2022/08/10 07:16:27;;;;;;;11.63;3.92;;;19.00;99.90;;;;;;5090223;28;20047;-78
2022/08/10 07:18:55;;;;;;;6.40;3.40;;;19.10;99.90;;;;;;5090313;28;20044;-83
2022/08/10 07:21:22;;;;;;;6.35;2.88;;;19.20;99.90;;;;;;5089796;28;20514;-78
2022/08/10 07:23:49;;;;;;;4.03;2.83;;;19.30;99.90;;;;;;5090328;28;20115;-77
2022/08/10 07:26:22;;;;;;;5.13;2.30;;;19.40;99.90;;;;;;5090210;28;20044;-82
2022/08/10 07:29:05;;;;;;;5.28;2.60;;;19.70;99.90;;;;;;5089763;28;20049;-89
2022/08/10 07:31:36;;;;;;;6.88;2.38;;;19.80;99.90;;;;;;5089951;28;20051;-89
2022/08/10 07:34:14;;;;;;;7.75;3.10;;;19.80;99.90;;;;;;5054035;28;20071;-83
2022/08/10 07:36:43;;;;;;;5.80;2.42;;;19.90;99.90;;;;;;5090348;28;20058;-84
2022/08/10 07:39:11;;;;;;;7.05;2.55;;;20.00;99.90;;;;;;5089854;28;20072;-79
2022/08/10 07:41:41;;;;;;;6.13;2.28;;;20.20;99.90;;;;;;5090277;28;20040;-79
2022/08/10 07:44:10;;;;;;;7.82;2.13;;;20.20;99.90;;;;;;5071984;28;20180;-86
2022/08/10 07:46:39;;;;;;;4.90;2.45;;;20.40;99.90;;;;;;5090144;28;20395;-85
2022/08/10 07:49:11;;;;;;;6.03;2.35;;;20.50;99.90;;;;;;5071844;28;20055;-75
2022/08/10 07:51:37;;;;;;;6.75;2.28;;;20.70;99.90;;;;;;5093117;28;20449;-88
2022/08/10 07:54:07;;;;;;;6.35;2.20;;;20.80;99.90;;;;;;5094016;28;20040;-83
2022/08/10 07:56:36;;;;;;;4.07;2.30;;;21.00;99.90;;;;;;5093576;28;20386;-83
2022/08/10 07:59:08;;;;;;;6.22;1.92;;;21.20;99.90;;;;;;5093472;28;20048;-83
2022/08/10 08:01:39;;;;;;;4.82;2.05;;;21.40;99.90;;;;;;5092993;28;20075;-79
2022/08/10 08:04:06;;;;;;;3.45;1.95;;;21.70;99.90;;;;;;5075130;28;20114;-80
2022/08/10 08:06:34;;;;;;;6.57;2.30;;;21.90;99.90;;;;;;5074825;28;20055;-77
2022/08/10 08:09:02;;;;;;;6.07;2.40;;;22.10;99.90;;;;;;5093339;28;20048;-77
2022/08/10 08:11:30;;;;;;;6.43;1.95;;;22.30;99.90;;;;;;5093605;28;20051;-76
2022/08/10 08:13:57;;;;;;;4.18;2.30;;;22.60;99.90;;;;;;5093837;28;20087;-79
2022/08/10 08:16:24;;;;;;;6.45;2.15;;;22.80;99.90;;;;;;5074793;28;20040;-81
2022/08/10 08:18:55;;;;;;;4.35;1.63;;;23.00;99.90;;;;;;5075221;28;20047;-78
2022/08/10 08:21:21;;;;;;;10.25;1.88;;;23.20;99.90;;;;;;5074862;28;20135;-78
2022/08/10 08:23:50;;;;;;;4.80;1.90;;;23.40;99.90;;;;;;5074846;28;20119;-80
2022/08/10 08:26:17;;;;;;;5.35;1.73;;;23.60;99.90;;;;;;5093112;28;20486;-78
2022/08/10 08:28:44;;;;;;;9.32;1.90;;;23.70;99.90;;;;;;5074649;28;20052;-81
2022/08/10 08:31:13;;;;;;;3.22;1.33;;;23.80;99.90;;;;;;5092742;28;20498;-78
2022/08/10 08:33:40;;;;;;;7.15;1.73;;;24.10;99.90;;;;;;5075402;28;20047;-85
2022/08/10 08:36:07;;;;;;;4.18;1.70;;;24.20;99.90;;;;;;5075109;28;20052;-79
2022/08/10 08:38:35;;;;;;;7.00;1.95;;;24.30;99.90;;;;;;5092928;28;20425;-78
2022/08/10 08:41:51;;;;;;;5.07;1.65;;;24.50;99.90;;;;;;5092955;28;20044;-82
2022/08/10 08:44:32;;;;;;;4.95;1.95;;;24.70;99.90;;;;;;5010396;28;20496;-80
2022/08/10 08:47:15;;;;;;;6.47;1.98;;;24.90;99.90;;;;;;5010023;28;20455;-80
2022/08/10 08:49:51;;;;;;;7.03;1.98;;;25.00;99.90;;;;;;5010586;28;20117;-82
2022/08/10 08:52:37;;;;;;;4.65;1.60;;;25.10;99.90;;;;;;5010472;28;20042;-77
2022/08/10 08:55:21;;;;;;;4.25;1.63;;;25.30;99.90;;;;;;5010086;28;20532;-76
2022/08/10 08:58:28;;;;;;;9.82;1.73;;;25.40;99.90;;;;;;5009982;28;20054;-77
2022/08/10 09:01:18;;;;;;;8.25;2.42;;;25.60;99.90;;;;;;4951620;28;20075;-74
2022/08/10 09:04:04;;;;;;;4.90;1.73;;;25.70;99.90;;;;;;4950939;29;20573;-79
2022/08/10 09:06:42;;;;;;;10.05;1.90;;;25.90;99.90;;;;;;4935595;29;20091;-75
2022/08/10 09:09:23;;;;;;;5.18;1.50;;;26.00;99.90;;;;;;4951692;29;20590;-83
2022/08/10 09:12:09;;;;;;;5.50;1.45;;;26.10;99.90;;;;;;4951374;29;20142;-82
2022/08/10 09:14:49;;;;;;;6.65;1.75;;;26.20;99.90;;;;;;4951519;29;20129;-80
2022/08/10 09:17:46;;;;;;;7.13;1.73;;;26.30;99.90;;;;;;4950904;29;20865;-82
2022/08/10 09:20:26;;;;;;;5.60;1.98;;;26.30;99.90;;;;;;4962403;28;20120;-82
2022/08/10 09:23:10;;;;;;;5.30;1.50;;;26.40;99.90;;;;;;4990000;28;20046;-80
2022/08/10 09:25:40;;;;;;;7.53;1.63;;;26.70;99.90;;;;;;4990251;28;20183;-83
2022/08/10 09:28:21;;;;;;;6.15;1.58;;;26.80;99.90;;;;;;4989935;28;20513;-82
2022/08/10 09:30:57;;;;;;;4.63;1.60;;;26.90;99.90;;;;;;4973539;28;20058;-76
2022/08/10 09:33:31;;;;;;;6.68;1.50;;;26.90;99.90;;;;;;4991522;28;20042;-80
2022/08/10 09:36:06;;;;;;;7.95;1.60;;;27.20;99.90;;;;;;4992542;28;20128;-81
2022/08/10 09:38:47;;;;;;;2.83;1.25;;;27.40;99.90;;;;;;5047715;28;20060;-77
2022/08/10 09:41:48;;;;;;;2.97;1.30;;;27.50;99.90;;;;;;5071612;28;20403;-76
2022/08/10 09:44:26;;;;;;;9.55;1.23;;;27.60;99.90;;;;;;5073150;28;20048;-80
2022/08/10 09:47:29;;;;;;;3.67;1.38;;;27.80;99.90;;;;;;5078101;28;20044;-81
2022/08/10 09:50:04;;;;;;;5.32;1.30;;;27.70;99.90;;;;;;5056470;28;20126;-82
2022/08/10 09:53:07;;;;;;;6.88;1.30;;;27.90;99.90;;;;;;5073361;28;20052;-75
2022/08/10 09:55:46;;;;;;;5.10;1.20;;;28.00;99.70;;;;;;5092733;28;20116;-78
2022/08/10 09:58:37;;;;;;;3.85;1.15;;;28.10;99.90;;;;;;5088989;28;20044;-77
2022/08/10 10:01:23;;;;;;;3.67;1.27;;;28.10;99.30;;;;;;5057917;28;20131;-78
2022/08/10 10:04:14;;;;;;;4.47;1.13;;;28.20;99.90;;;;;;5071642;28;20056;-76
2022/08/10 10:06:50;;;;;;;5.32;1.50;;;28.50;99.60;;;;;;5053137;28;20057;-80
2022/08/10 10:09:19;;;;;;;3.90;1.20;;;28.60;99.90;;;;;;5070830;28;20040;-79
2022/08/10 10:12:05;;;;;;;3.03;1.08;;;28.70;99.90;;;;;;5070926;28;20061;-75
2022/08/10 10:17:43;;;;;;;3.45;1.05;;;28.80;98.10;;;;;;5070555;28;20048;-74
2022/08/10 10:20:19;;;;;;;7.70;1.02;;;29.00;99.40;;;;;;5070490;28;20080;-76
2022/08/10 10:22:47;;;;;;;7.53;1.10;;;29.10;98.90;;;;;;5052963;28;20048;-75
2022/08/10 10:25:28;;;;;;;3.40;0.80;;;29.20;96.30;;;;;;5070805;28;20052;-81
2022/08/10 10:28:12;;;;;;;2.45;0.98;;;29.20;96.50;;;;;;5052976;28;20128;-81
2022/08/10 10:30:57;;;;;;;3.35;1.27;;;29.30;97.20;;;;;;5070931;28;20158;-76
2022/08/10 10:33:34;;;;;;;;;;;29.30;97.60;;;;;;5071281;28;20048;-76
2022/08/10 10:36:00;;;;;;;5.18;0.95;;;29.30;96.60;;;;;;5070243;28;19975;-79
2022/08/10 10:38:34;;;;;;;5.18;0.88;;;29.50;97.90;;;;;;5070411;28;20059;-74
2022/08/10 10:41:17;;;;;;;6.60;1.10;;;29.60;96.20;;;;;;5070295;28;20483;-81
2022/08/10 10:44:11;;;;;;;4.93;0.98;;;29.70;95.60;;;;;;5052920;28;20080;-80
2022/08/10 10:47:15;;;;;;;2.20;0.90;;;29.70;95.50;;;;;;5069975;28;20043;-73
2022/08/10 10:50:11;;;;;;;3.85;0.93;;;29.70;94.30;;;;;;5052561;28;20052;-75
2022/08/10 10:53:02;;;;;;;5.95;0.90;;;29.80;95.00;;;;;;5069934;28;20062;-78
2022/08/10 10:55:51;;;;;;;6.68;1.00;;;29.80;94.30;;;;;;5051975;28;20566;-74
2022/08/10 10:58:39;;;;;;;2.85;1.00;;;30.00;94.90;;;;;;5070198;28;20135;-75
2022/08/10 11:01:31;;;;;;;8.30;0.80;;;30.00;93.90;;;;;;5069818;28;20048;-74
2022/08/10 11:04:15;;;;;;;4.60;1.38;;;29.90;93.10;;;;;;5069828;28;20532;-75
2022/08/10 11:06:44;;;;;;;2.95;0.90;;;30.00;94.60;;;;;;5069879;28;20082;-74
2022/08/10 11:09:30;;;;;;;2.45;0.85;;;29.90;93.60;;;;;;5070111;28;20052;-74
2022/08/10 11:12:00;;;;;;;1.92;0.80;;;29.80;93.10;;;;;;5051756;28;20052;-73
2022/08/10 11:14:50;;;;;;;2.90;1.15;;;30.10;93.90;;;;;;5069604;28;20079;-73
2022/08/10 11:17:15;;;;;;;2.28;0.80;;;30.10;93.00;;;;;;5051954;28;20127;-72
2022/08/10 11:20:03;;;;;;;4.18;0.90;;;30.10;93.70;;;;;;5069931;28;20127;-73
2022/08/10 11:22:38;;;;;;;5.68;1.08;;;30.20;92.40;;;;;;5051701;28;20094;-74
2022/08/10 11:25:19;;;;;;;3.20;0.93;;;30.30;92.40;;;;;;5069110;28;20462;-73
2022/08/10 11:27:52;;;;;;;3.47;0.70;;;30.40;93.40;;;;;;5069870;28;20078;-82
2022/08/10 11:30:24;;;;;;;4.35;0.90;;;30.50;92.80;;;;;;5069564;28;20044;-74
2022/08/10 11:33:08;;;;;;;2.85;0.90;;;30.60;92.30;;;;;;5069640;28;20494;-78
2022/08/10 11:35:43;;;;;;;;;;;30.70;91.50;;;;;;5053249;28;20048;-71
2022/08/10 11:38:27;;;;;;;3.35;0.60;;;30.60;91.70;;;;;;5090591;28;19965;-73
2022/08/10 11:41:08;;;;;;;1.80;0.80;;;30.70;92.50;;;;;;5090880;28;20477;-78
2022/08/10 11:43:40;;;;;;;1.58;0.60;;;30.80;91.50;;;;;;5072833;28;20386;-78
2022/08/10 11:46:35;;;;;;;3.13;0.80;;;31.00;91.20;;;;;;5098992;28;20043;-78
2022/08/10 11:49:16;;;;;;;4.90;0.80;;;30.90;90.50;;;;;;5083510;28;20064;-77
2022/08/10 11:51:47;;;;;;;2.53;0.70;;;31.00;90.60;;;;;;5093017;28;20047;-85
2022/08/10 11:54:28;;;;;;;1.75;0.80;;;31.00;91.10;;;;;;5092096;28;20039;-79
2022/08/10 11:56:57;;;;;;;7.20;0.68;;;31.00;90.00;;;;;;5071633;28;20056;-83
2022/08/10 12:02:13;;;;;;;1.85;0.70;;;31.20;90.30;;;;;;5089737;28;20040;-77
2022/08/10 12:04:44;;;;;;;1.70;0.60;;;31.30;90.70;;;;;;5089573;28;20397;-79
2022/08/10 12:07:10;;;;;;;3.15;0.70;;;31.30;89.90;;;;;;5089777;28;20040;-87
2022/08/10 12:09:37;;;;;;;1.88;0.82;;;31.50;90.30;;;;;;5089410;28;20066;-86
2022/08/10 12:12:05;;;;;;;2.47;0.60;;;31.60;90.30;;;;;;5089327;28;20055;-84
2022/08/10 12:14:39;;;;;;;5.28;0.95;;;31.60;89.70;;;;;;5089682;28;20383;-84
2022/08/10 12:17:12;;;;;;;4.90;0.75;;;31.60;89.10;;;;;;5071381;28;20052;-85
2022/08/10 12:20:03;;;;;;;1.70;0.50;;;31.60;88.90;;;;;;5088989;28;20047;-85
2022/08/10 12:22:58;;;;;;;4.47;0.77;;;31.70;87.70;;;;;;5006961;28;20555;-78
2022/08/10 12:25:35;;;;;;;1.98;0.80;;;31.70;87.70;;;;;;5006475;28;20052;-80
2022/08/10 12:28:09;;;;;;;2.10;0.70;;;31.90;89.50;;;;;;5006952;28;20141;-78
2022/08/10 12:30:40;;;;;;;2.45;0.70;;;32.00;87.50;;;;;;5007066;28;20172;-77
2022/08/10 12:33:16;;;;;;;4.15;0.80;;;32.00;85.90;;;;;;5007015;28;20467;-76
2022/08/10 12:35:57;;;;;;;4.85;0.90;;;31.90;85.70;;;;;;5006891;28;20077;-75
2022/08/10 12:38:30;;;;;;;2.65;0.82;;;31.90;86.20;;;;;;4993483;28;20054;-74
2022/08/10 12:40:59;;;;;;;3.78;0.80;;;31.90;87.10;;;;;;5009839;28;20058;-74
2022/08/10 12:43:44;;;;;;;3.65;1.08;;;32.00;87.40;;;;;;4994158;28;20538;-83
2022/08/10 12:46:30;;;;;;;4.07;0.88;;;32.10;86.70;;;;;;5010550;28;20436;-73
2022/08/10 12:49:02;;;;;;;3.53;0.90;;;32.00;85.90;;;;;;5010500;28;20079;-84
2022/08/10 12:51:32;;;;;;;3.10;0.80;;;31.60;82.70;;;;;;5009633;28;20136;-79
2022/08/10 12:54:12;;;;;;;1.23;0.68;;;31.90;86.00;;;;;;5009957;28;20050;-78
2022/08/10 12:56:45;;;;;;;3.40;0.90;;;31.90;84.80;;;;;;5009732;28;20058;-77
2022/08/10 12:59:12;;;;;;;3.85;0.80;;;31.90;85.50;;;;;;5040402;28;20093;-77
2022/08/10 13:01:39;;;;;;;3.78;1.10;;;32.00;86.90;;;;;;5092061;28;20533;-78
2022/08/10 13:04:15;;;;;;;4.60;1.00;;;32.10;85.90;;;;;;5092192;28;20048;-81
2022/08/10 13:06:45;;;;;;;6.40;1.40;;;32.10;84.20;;;;;;5092117;28;20505;-82
2022/08/10 13:09:14;;;;;;;3.00;1.02;;;32.10;85.00;;;;;;5092790;28;20052;-80
2022/08/10 13:11:48;;;;;;;5.97;0.95;;;32.00;84.30;;;;;;5073539;28;20091;-83
2022/08/10 13:14:22;;;;;;;2.20;0.85;;;32.10;83.90;;;;;;5091952;28;20105;-86
2022/08/10 13:16:48;;;;;;;;;;;32.00;83.20;;;;;;5092540;28;20403;-82
2022/08/10 13:19:20;;;;;;;5.30;0.93;;;32.00;81.80;;;;;;5092205;28;19927;-82
2022/08/10 13:21:46;;;;;;;4.13;0.77;;;32.00;84.30;;;;;;5058559;28;20133;-83